createdAt,value
2017-09-22T00:01:59.873Z,87.00
2017-09-22T00:04:27.472Z,86.80
2017-09-22T00:06:55.808Z,86.70
2017-09-22T00:09:23.601Z,86.70
2017-09-22T00:11:51.164Z,86.30
2017-09-22T00:14:18.736Z,86.50
2017-09-22T00:16:47.303Z,87.10
2017-09-22T00:19:14.868Z,86.40
2017-09-22T00:21:42.519Z,86.30
2017-09-22T00:24:10.107Z,86.00
2017-09-22T00:26:38.437Z,85.90
2017-09-22T00:29:06.028Z,85.90
2017-09-22T00:31:33.682Z,85.30
2017-09-22T00:34:02.783Z,85.00
2017-09-22T00:36:30.358Z,84.90
2017-09-22T00:38:59.876Z,86.30
2017-09-22T00:41:28.216Z,86.30
2017-09-22T00:43:55.896Z,86.30
2017-09-22T00:46:23.459Z,85.60
2017-09-22T00:48:51.060Z,85.70
2017-09-22T00:51:18.633Z,85.50
2017-09-22T00:53:46.444Z,85.50
2017-09-22T00:56:14.008Z,85.10
2017-09-22T00:58:41.580Z,85.00
2017-09-22T01:01:10.049Z,84.30
2017-09-22T01:03:38.390Z,83.90
2017-09-22T01:06:05.992Z,83.90
2017-09-22T01:08:34.340Z,83.70
2017-09-22T01:11:03.055Z,83.90
2017-09-22T01:13:31.408Z,83.50
2017-09-22T01:16:01.260Z,83.30
2017-09-22T01:18:29.991Z,83.10
2017-09-22T01:20:59.296Z,82.80
2017-09-22T01:23:26.957Z,82.80
2017-09-22T01:25:54.660Z,82.80
2017-09-22T01:28:22.485Z,82.80
2017-09-22T01:30:50.089Z,83.40
2017-09-22T01:33:17.683Z,83.50
2017-09-22T01:35:45.307Z,83.40
2017-09-22T01:38:12.908Z,83.20
2017-09-22T01:40:40.490Z,83.00
2017-09-22T01:43:08.084Z,82.90
2017-09-22T01:45:35.656Z,82.60
2017-09-22T01:48:04.298Z,82.10
2017-09-22T01:50:31.867Z,82.20
2017-09-22T01:53:00.872Z,83.10
2017-09-22T01:55:28.559Z,82.40
2017-09-22T01:57:56.452Z,82.10
2017-09-22T02:00:24.784Z,81.90
2017-09-22T02:02:52.355Z,82.00
2017-09-22T02:05:20.008Z,81.60
2017-09-22T02:07:47.584Z,81.70
2017-09-22T02:10:15.181Z,82.30
2017-09-22T02:12:42.753Z,82.20
2017-09-22T02:15:10.349Z,83.10
2017-09-22T02:17:37.920Z,83.60
2017-09-22T02:20:05.700Z,83.70
2017-09-22T02:22:33.272Z,84.40
2017-09-22T02:25:02.740Z,84.00
2017-09-22T02:27:30.424Z,83.90
2017-09-22T02:29:57.996Z,84.00
2017-09-22T02:32:26.355Z,83.30
2017-09-22T02:34:54.029Z,83.10
2017-09-22T02:37:21.633Z,82.80
2017-09-22T02:39:49.244Z,82.80
2017-09-22T02:42:17.016Z,82.80
2017-09-22T02:44:44.868Z,82.70
2017-09-22T02:47:12.544Z,82.50
2017-09-22T02:49:40.145Z,82.40
2017-09-22T02:52:07.780Z,82.40
2017-09-22T02:54:36.146Z,83.00
2017-09-22T02:57:03.713Z,83.00
2017-09-22T02:59:31.339Z,83.60
2017-09-22T03:02:00.847Z,84.30
2017-09-22T03:04:28.740Z,84.30
2017-09-22T03:06:56.314Z,84.10
2017-09-22T03:09:23.893Z,84.40
2017-09-22T03:11:52.256Z,84.60
2017-09-22T03:14:20.600Z,84.00
2017-09-22T03:16:48.200Z,83.90
2017-09-22T03:19:16.540Z,84.30
2017-09-22T03:21:44.224Z,84.20
2017-09-22T03:24:11.893Z,85.50
2017-09-22T03:26:39.492Z,86.60
2017-09-22T03:29:07.072Z,86.70
2017-09-22T03:31:34.639Z,87.10
2017-09-22T03:34:02.229Z,87.40
2017-09-22T03:36:30.080Z,87.60
2017-09-22T03:38:57.677Z,87.80
2017-09-22T03:41:26.011Z,89.00
2017-09-22T03:43:53.713Z,89.00
2017-09-22T03:46:22.055Z,89.60
2017-09-22T03:48:49.652Z,89.60
2017-09-22T03:51:17.988Z,89.60
2017-09-22T03:53:45.893Z,89.60
2017-09-22T03:56:13.556Z,89.60
2017-09-22T03:58:41.686Z,89.70
2017-09-22T04:01:09.276Z,89.70
2017-09-22T04:03:36.844Z,89.70
2017-09-22T04:06:04.440Z,89.80
2017-09-22T04:08:32.780Z,89.90
2017-09-22T04:11:02.808Z,90.00
2017-09-22T04:13:30.388Z,89.80
2017-09-22T04:16:00.208Z,90.10
2017-09-22T04:18:28.564Z,90.10
2017-09-22T04:20:56.225Z,90.10
2017-09-22T04:23:24.571Z,90.30
2017-09-22T04:25:52.165Z,90.30
2017-09-22T04:28:19.741Z,90.40
2017-09-22T04:30:48.124Z,90.00
2017-09-22T04:33:16.460Z,90.40
2017-09-22T04:35:44.032Z,90.70
2017-09-22T04:38:11.889Z,90.50
2017-09-22T04:40:39.456Z,90.50
2017-09-22T04:43:07.081Z,90.60
2017-09-22T04:45:34.651Z,90.70
2017-09-22T04:48:02.227Z,90.60
2017-09-22T04:50:29.825Z,90.90
2017-09-22T04:52:59.079Z,91.80
2017-09-22T04:55:26.673Z,91.50
2017-09-22T04:57:54.244Z,91.60
2017-09-22T05:00:22.581Z,91.80
2017-09-22T05:02:50.168Z,91.90
2017-09-22T05:05:17.835Z,92.10
2017-09-22T05:07:45.403Z,92.20
2017-09-22T05:10:13.000Z,92.30
2017-09-22T05:12:40.569Z,92.50
2017-09-22T05:15:08.192Z,92.30
2017-09-22T05:17:36.557Z,92.40
2017-09-22T05:20:04.116Z,92.40
2017-09-22T05:22:31.708Z,92.40
2017-09-22T05:25:00.769Z,92.40
2017-09-22T05:27:28.357Z,92.40
2017-09-22T05:29:56.693Z,92.40
2017-09-22T05:32:24.285Z,92.40
2017-09-22T05:34:51.853Z,92.40
2017-09-22T05:37:20.200Z,92.40
2017-09-22T05:39:47.764Z,92.40
2017-09-22T05:42:15.436Z,92.40
2017-09-22T05:44:42.999Z,92.30
2017-09-22T05:47:10.560Z,92.30
2017-09-22T05:49:38.153Z,92.20
2017-09-22T05:52:05.722Z,92.20
2017-09-22T05:54:33.341Z,92.70
2017-09-22T05:57:02.716Z,92.40
2017-09-22T05:59:30.407Z,92.40
2017-09-22T06:01:59.671Z,92.40
2017-09-22T06:04:27.264Z,92.40
2017-09-22T06:06:55.608Z,92.30
2017-09-22T06:09:23.296Z,92.30
2017-09-22T06:11:50.868Z,92.30
2017-09-22T06:14:18.441Z,91.50
2017-09-22T06:16:46.800Z,91.50
2017-09-22T06:19:14.364Z,91.10
2017-09-22T06:21:42.037Z,90.90
2017-09-22T06:24:09.604Z,90.80
2017-09-22T06:26:37.967Z,90.60
2017-09-22T06:29:05.540Z,90.60
2017-09-22T06:31:34.020Z,90.20
2017-09-22T06:34:02.781Z,90.10
2017-09-22T06:36:30.343Z,90.10
2017-09-22T06:38:57.936Z,90.00
2017-09-22T06:41:25.504Z,89.80
2017-09-22T06:43:54.688Z,89.20
2017-09-22T06:46:22.256Z,89.10
2017-09-22T06:48:49.912Z,88.80
2017-09-22T06:51:18.253Z,86.80
2017-09-22T06:53:45.844Z,86.80
2017-09-22T06:56:14.928Z,85.40
2017-09-22T06:58:42.545Z,85.40
2017-09-22T07:01:10.455Z,84.60
2017-09-22T07:03:38.140Z,83.90
2017-09-22T07:06:05.733Z,83.90
2017-09-22T07:08:33.295Z,83.70
2017-09-22T07:11:02.960Z,84.40
2017-09-22T07:13:30.532Z,84.40
2017-09-22T07:15:59.116Z,82.70
2017-09-22T07:18:26.677Z,82.70
2017-09-22T07:20:54.272Z,81.30
2017-09-22T07:23:21.838Z,80.10
2017-09-22T07:25:49.461Z,80.10
2017-09-22T07:28:17.031Z,80.30
2017-09-22T07:30:45.404Z,81.00
2017-09-22T07:33:13.122Z,80.90
2017-09-22T07:35:40.695Z,80.60
2017-09-22T07:38:08.384Z,80.40
2017-09-22T07:40:35.952Z,80.00
2017-09-22T07:43:03.540Z,80.00
2017-09-22T07:45:31.108Z,80.10
2017-09-22T07:47:58.725Z,80.30
2017-09-22T07:50:26.292Z,80.50
2017-09-22T07:52:53.889Z,80.30
2017-09-22T07:55:21.464Z,80.60
2017-09-22T07:57:49.184Z,80.70
2017-09-22T08:00:16.756Z,81.70
2017-09-22T08:02:45.095Z,82.30
2017-09-22T08:05:12.684Z,82.20
2017-09-22T08:07:40.256Z,82.40
2017-09-22T08:10:08.716Z,80.40
2017-09-22T08:12:36.289Z,80.40
2017-09-22T08:15:04.664Z,82.00
2017-09-22T08:17:32.321Z,81.30
2017-09-22T08:20:01.844Z,79.30
2017-09-22T08:22:30.204Z,79.70
2017-09-22T08:24:57.773Z,79.70
2017-09-22T08:27:25.437Z,78.60
2017-09-22T08:29:53.380Z,78.50
2017-09-22T08:32:20.949Z,79.50
2017-09-22T08:34:48.516Z,79.50
2017-09-22T08:37:16.123Z,79.80
2017-09-22T08:39:43.687Z,79.70
2017-09-22T08:42:11.261Z,79.90
2017-09-22T08:44:38.852Z,79.90
2017-09-22T08:47:06.713Z,80.20
2017-09-22T08:49:34.284Z,80.70
2017-09-22T08:52:03.901Z,81.10
2017-09-22T08:54:31.478Z,81.00
2017-09-22T08:57:00.760Z,81.30
2017-09-22T08:59:28.331Z,81.20
2017-09-22T09:01:56.704Z,81.00
2017-09-22T09:04:24.280Z,80.80
2017-09-22T09:06:52.639Z,81.10
2017-09-22T09:09:20.236Z,81.10
2017-09-22T09:11:47.809Z,82.00
2017-09-22T09:14:15.405Z,81.70
2017-09-22T09:16:42.980Z,81.50
2017-09-22T09:19:10.571Z,81.20
2017-09-22T09:21:38.928Z,80.90
2017-09-22T09:24:06.597Z,80.90
2017-09-22T09:26:34.936Z,81.80
2017-09-22T09:29:03.226Z,81.10
2017-09-22T09:31:30.908Z,80.90
2017-09-22T09:33:58.496Z,81.70
2017-09-22T09:36:26.838Z,80.40
2017-09-22T09:38:54.429Z,80.40
2017-09-22T09:41:22.769Z,78.20
2017-09-22T09:43:50.364Z,78.10
2017-09-22T09:46:18.709Z,76.40
2017-09-22T09:48:46.300Z,76.30
2017-09-22T09:51:14.632Z,75.00
2017-09-22T09:53:42.225Z,75.00
2017-09-22T09:56:09.891Z,74.20
2017-09-22T09:58:37.505Z,70.90
2017-09-22T10:01:05.076Z,71.80
2017-09-22T10:03:32.672Z,69.70
2017-09-22T10:06:02.792Z,65.70
2017-09-22T10:08:30.372Z,65.60
2017-09-22T10:10:58.728Z,63.50
2017-09-22T10:13:26.388Z,63.50
2017-09-22T10:15:54.055Z,63.90
2017-09-22T10:18:21.620Z,62.00
2017-09-22T10:20:49.208Z,61.50
2017-09-22T10:23:17.547Z,60.30
2017-09-22T10:25:45.219Z,60.30
2017-09-22T10:28:12.801Z,61.00
2017-09-22T10:30:41.160Z,57.70
2017-09-22T10:33:10.252Z,55.70
2017-09-22T10:35:39.352Z,52.70
2017-09-22T10:38:07.686Z,49.70
2017-09-22T10:40:35.288Z,49.50
2017-09-22T10:43:04.390Z,46.10
2017-09-22T10:45:32.760Z,43.50
2017-09-22T10:48:02.140Z,43.20
2017-09-22T10:50:29.827Z,42.90
2017-09-22T10:52:57.400Z,39.00
2017-09-22T10:55:25.767Z,37.70
2017-09-22T10:57:53.337Z,37.70
2017-09-22T11:00:21.035Z,35.90
2017-09-22T11:02:48.608Z,34.30
2017-09-22T11:05:16.200Z,35.20
2017-09-22T11:07:43.884Z,35.20
2017-09-22T11:10:11.456Z,33.80
2017-09-22T11:12:39.816Z,31.90
2017-09-22T11:15:07.484Z,31.90
2017-09-22T11:17:36.584Z,29.80
2017-09-22T11:20:04.248Z,29.70
2017-09-22T11:22:31.843Z,29.80
2017-09-22T11:25:00.765Z,27.80
2017-09-22T11:27:28.363Z,27.20
2017-09-22T11:29:55.949Z,27.70
2017-09-22T11:32:24.360Z,25.50
2017-09-22T11:34:51.959Z,25.40
2017-09-22T11:37:20.371Z,25.90
2017-09-22T11:39:48.876Z,25.10
2017-09-22T11:42:16.506Z,25.10
2017-09-22T11:44:44.092Z,24.70
2017-09-22T11:47:11.712Z,25.80
2017-09-22T11:49:39.380Z,25.90
2017-09-22T11:52:07.717Z,26.20
2017-09-22T11:54:35.312Z,25.70
2017-09-22T11:57:03.657Z,26.00
2017-09-22T11:59:31.354Z,25.90
2017-09-22T12:01:59.012Z,26.50
2017-09-22T12:04:26.640Z,26.40
2017-09-22T12:06:54.212Z,27.60
2017-09-22T12:09:21.875Z,27.90
2017-09-22T12:11:49.453Z,27.60
2017-09-22T12:14:17.048Z,28.50
2017-09-22T12:16:45.379Z,29.00
2017-09-22T12:19:12.979Z,29.00
2017-09-22T12:21:41.320Z,30.00
2017-09-22T12:24:09.004Z,30.00
2017-09-22T12:26:36.568Z,30.80
2017-09-22T12:29:04.157Z,30.00
2017-09-22T12:31:31.839Z,27.40
2017-09-22T12:34:01.765Z,28.10
2017-09-22T12:36:29.351Z,28.10
2017-09-22T12:38:57.023Z,29.50
2017-09-22T12:41:24.620Z,29.80
2017-09-22T12:43:52.185Z,29.30
2017-09-22T12:46:19.829Z,31.20
2017-09-22T12:48:47.573Z,32.40
2017-09-22T12:51:15.173Z,32.90
2017-09-22T12:53:42.797Z,33.00
2017-09-22T12:56:10.387Z,31.60
2017-09-22T12:58:38.836Z,30.80
2017-09-22T13:01:06.436Z,30.80
2017-09-22T13:03:34.011Z,31.20
2017-09-22T13:06:03.765Z,32.00
2017-09-22T13:08:31.336Z,31.90
2017-09-22T13:10:58.924Z,31.00
2017-09-22T13:13:27.253Z,31.70
2017-09-22T13:15:54.856Z,31.60
2017-09-22T13:18:23.218Z,31.20
2017-09-22T13:20:50.875Z,31.20
2017-09-22T13:23:18.540Z,33.70
2017-09-22T13:25:46.104Z,33.80
2017-09-22T13:28:13.701Z,35.00
2017-09-22T13:30:41.272Z,32.60
2017-09-22T13:33:08.864Z,33.60
2017-09-22T13:35:36.440Z,35.70
2017-09-22T13:38:04.028Z,34.50
2017-09-22T13:40:32.355Z,35.60
2017-09-22T13:43:00.912Z,36.10
2017-09-22T13:45:28.476Z,37.20
2017-09-22T13:47:56.071Z,38.30
2017-09-22T13:50:23.636Z,40.20
2017-09-22T13:52:51.308Z,41.70
2017-09-22T13:55:19.690Z,44.30
2017-09-22T13:57:47.349Z,44.20
2017-09-22T14:00:16.429Z,45.60
2017-09-22T14:02:44.116Z,45.60
2017-09-22T14:05:11.689Z,46.90
2017-09-22T14:07:40.052Z,48.70
2017-09-22T14:10:07.637Z,48.60
2017-09-22T14:12:35.996Z,50.10
2017-09-22T14:15:04.517Z,50.00
2017-09-22T14:17:32.133Z,49.70
2017-09-22T14:20:01.040Z,50.10
2017-09-22T14:22:29.411Z,49.00
2017-09-22T14:24:57.763Z,48.20
2017-09-22T14:27:25.333Z,48.20
2017-09-22T14:29:52.923Z,48.20
2017-09-22T14:32:21.252Z,49.10
2017-09-22T14:34:48.944Z,49.00
2017-09-22T14:37:16.612Z,48.10
2017-09-22T14:39:44.209Z,49.60
2017-09-22T14:42:11.776Z,48.10
2017-09-22T14:44:39.364Z,49.50
2017-09-22T14:47:06.952Z,48.20
2017-09-22T14:49:34.540Z,48.70
2017-09-22T14:52:03.692Z,49.10
2017-09-22T14:54:31.284Z,49.10
2017-09-22T14:56:58.848Z,49.90
2017-09-22T14:59:27.211Z,49.70
2017-09-22T15:01:54.900Z,49.70
2017-09-22T15:04:23.286Z,50.60
2017-09-22T15:06:51.636Z,51.30
2017-09-22T15:09:19.208Z,51.20
2017-09-22T15:11:46.859Z,50.70
2017-09-22T15:14:14.518Z,51.30
2017-09-22T15:16:42.467Z,50.40
2017-09-22T15:19:10.053Z,49.90
2017-09-22T15:21:37.718Z,49.60
2017-09-22T15:24:05.275Z,48.70
2017-09-22T15:26:32.939Z,50.40
2017-09-22T15:29:01.893Z,51.00
2017-09-22T15:31:29.496Z,51.00
2017-09-22T15:33:57.835Z,50.50
2017-09-22T15:36:25.425Z,50.60
2017-09-22T15:38:53.005Z,51.10
2017-09-22T15:41:21.369Z,50.40
2017-09-22T15:43:49.032Z,50.30
2017-09-22T15:46:16.624Z,50.70
2017-09-22T15:48:44.952Z,50.50
2017-09-22T15:51:12.520Z,50.50
2017-09-22T15:53:40.108Z,50.50
2017-09-22T15:56:08.445Z,50.40
2017-09-22T15:58:36.132Z,50.40
2017-09-22T16:01:03.985Z,50.10
2017-09-22T16:03:31.664Z,50.20
2017-09-22T16:06:00.148Z,50.70
2017-09-22T16:08:27.995Z,51.50
2017-09-22T16:10:55.580Z,51.30
2017-09-22T16:13:23.176Z,52.00
2017-09-22T16:15:50.744Z,51.70
2017-09-22T16:18:18.368Z,51.90
2017-09-22T16:20:45.931Z,52.10
2017-09-22T16:23:14.396Z,52.50
2017-09-22T16:25:41.960Z,52.60
2017-09-22T16:28:09.807Z,52.70
2017-09-22T16:30:37.379Z,53.80
2017-09-22T16:33:05.012Z,55.20
2017-09-22T16:35:32.676Z,56.80
2017-09-22T16:38:02.052Z,56.60
2017-09-22T16:40:29.672Z,57.20
2017-09-22T16:42:57.288Z,56.80
2017-09-22T16:45:24.864Z,56.60
2017-09-22T16:47:52.452Z,57.20
2017-09-22T16:50:20.012Z,58.70
2017-09-22T16:52:47.625Z,58.40
2017-09-22T16:55:15.240Z,58.30
2017-09-22T16:57:42.808Z,58.30
2017-09-22T17:00:10.425Z,58.00
2017-09-22T17:02:37.993Z,57.70
2017-09-22T17:05:05.680Z,57.70
2017-09-22T17:07:33.352Z,58.50
2017-09-22T17:10:02.128Z,59.60
2017-09-22T17:12:29.696Z,59.10
2017-09-22T17:14:57.290Z,59.50
2017-09-22T17:17:25.628Z,60.00
2017-09-22T17:19:53.309Z,60.00
2017-09-22T17:22:20.912Z,62.30
2017-09-22T17:24:48.576Z,63.00
2017-09-22T17:27:16.249Z,63.80
2017-09-22T17:29:44.140Z,64.60
2017-09-22T17:32:11.709Z,64.50
2017-09-22T17:34:39.300Z,65.00
2017-09-22T17:37:07.642Z,65.70
2017-09-22T17:39:35.245Z,65.60
2017-09-22T17:42:03.585Z,67.00
2017-09-22T17:44:31.181Z,66.90
2017-09-22T17:47:00.468Z,66.10
2017-09-22T17:49:29.563Z,66.30
2017-09-22T17:51:57.131Z,66.30
2017-09-22T17:54:25.562Z,65.90
2017-09-22T17:56:53.152Z,65.60
2017-09-22T17:59:20.751Z,65.60
2017-09-22T18:01:48.324Z,65.80
2017-09-22T18:04:15.945Z,65.90
2017-09-22T18:06:43.612Z,66.00
2017-09-22T18:09:11.953Z,66.90
2017-09-22T18:11:39.643Z,66.80
2017-09-22T18:14:07.270Z,66.00
2017-09-22T18:16:34.972Z,66.20
2017-09-22T18:19:03.667Z,66.20
2017-09-22T18:21:32.039Z,66.50
2017-09-22T18:24:01.004Z,67.10
2017-09-22T18:26:28.604Z,66.90
2017-09-22T18:28:56.264Z,67.40
2017-09-22T18:31:23.856Z,68.50
2017-09-22T18:33:51.424Z,68.50
2017-09-22T18:36:19.047Z,68.90
2017-09-22T18:38:46.627Z,69.10
2017-09-22T18:41:15.079Z,69.40
2017-09-22T18:43:42.647Z,69.40
2017-09-22T18:46:10.256Z,69.50
2017-09-22T18:48:37.825Z,69.60
2017-09-22T18:51:05.420Z,69.40
2017-09-22T18:53:32.988Z,69.30
2017-09-22T18:56:02.824Z,69.20
2017-09-22T18:58:31.160Z,69.20
2017-09-22T19:00:58.733Z,69.20
2017-09-22T19:03:26.324Z,68.90
2017-09-22T19:05:54.672Z,68.60
2017-09-22T19:08:22.307Z,68.60
2017-09-22T19:10:49.881Z,68.20
2017-09-22T19:13:17.487Z,68.10
2017-09-22T19:15:45.823Z,67.80
2017-09-22T19:18:13.420Z,67.80
2017-09-22T19:20:41.794Z,67.60
2017-09-22T19:23:10.155Z,67.50
2017-09-22T19:25:39.260Z,67.20
2017-09-22T19:28:06.847Z,67.20
2017-09-22T19:30:35.176Z,67.40
2017-09-22T19:33:03.788Z,67.40
2017-09-22T19:35:31.453Z,67.40
2017-09-22T19:37:59.108Z,67.70
2017-09-22T19:40:26.774Z,68.50
2017-09-22T19:42:54.400Z,68.30
2017-09-22T19:45:21.973Z,68.40
2017-09-22T19:47:49.581Z,69.10
2017-09-22T19:50:17.939Z,70.20
2017-09-22T19:52:45.574Z,70.20
2017-09-22T19:55:13.168Z,71.00
2017-09-22T19:57:41.544Z,71.90
2017-09-22T20:00:09.136Z,71.90
2017-09-22T20:02:36.712Z,72.20
2017-09-22T20:05:04.309Z,72.70
2017-09-22T20:07:31.888Z,73.40
2017-09-22T20:10:01.077Z,74.50
2017-09-22T20:12:28.648Z,74.50
2017-09-22T20:14:56.240Z,75.00
2017-09-22T20:17:23.854Z,75.50
2017-09-22T20:19:51.452Z,75.70
2017-09-22T20:22:19.792Z,76.70
2017-09-22T20:24:48.897Z,77.20
2017-09-22T20:27:16.477Z,77.20
2017-09-22T20:29:44.840Z,77.40
2017-09-22T20:32:12.408Z,77.40
2017-09-22T20:34:40.000Z,78.20
2017-09-22T20:37:07.579Z,78.30
2017-09-22T20:39:35.469Z,78.80
2017-09-22T20:42:03.485Z,78.70
2017-09-22T20:44:31.841Z,79.90
2017-09-22T20:47:01.838Z,79.70
2017-09-22T20:49:29.432Z,79.70
2017-09-22T20:51:57.773Z,80.20
2017-09-22T20:54:25.564Z,80.20
2017-09-22T20:56:53.901Z,79.70
2017-09-22T20:59:21.480Z,79.70
2017-09-22T21:01:49.071Z,79.40
2017-09-22T21:04:17.408Z,79.10
2017-09-22T21:06:45.121Z,79.10
2017-09-22T21:09:13.483Z,79.20
2017-09-22T21:11:41.047Z,79.00
2017-09-22T21:14:10.240Z,78.80
2017-09-22T21:16:37.904Z,78.80
2017-09-22T21:19:05.505Z,79.10
2017-09-22T21:21:33.391Z,79.00
2017-09-22T21:24:02.716Z,78.70
2017-09-22T21:26:30.399Z,78.70
2017-09-22T21:28:57.988Z,78.50
2017-09-22T21:31:25.559Z,78.30
2017-09-22T21:33:53.152Z,78.30
2017-09-22T21:36:20.724Z,78.00
2017-09-22T21:38:48.357Z,77.50
2017-09-22T21:41:15.936Z,77.60
2017-09-22T21:43:43.623Z,77.30
2017-09-22T21:46:11.195Z,77.30
2017-09-22T21:48:38.952Z,77.30
2017-09-22T21:51:06.528Z,78.00
2017-09-22T21:53:34.867Z,77.20
2017-09-22T21:56:03.790Z,77.40
2017-09-22T21:58:31.360Z,77.40
2017-09-22T22:01:00.643Z,77.50
2017-09-22T22:03:33.899Z,77.40
2017-09-22T22:06:08.388Z,77.40
2017-09-22T22:08:36.725Z,76.90
2017-09-22T22:11:04.320Z,76.70
2017-09-22T22:13:32.660Z,77.20
2017-09-22T22:16:01.877Z,77.50
2017-09-22T22:18:29.536Z,77.30
2017-09-22T22:20:57.136Z,77.40
2017-09-22T22:23:24.759Z,78.00
2017-09-22T22:25:52.423Z,78.10
2017-09-22T22:28:20.084Z,78.20
2017-09-22T22:30:47.813Z,78.20
2017-09-22T22:33:15.376Z,78.40
2017-09-22T22:35:42.961Z,78.60
2017-09-22T22:38:14.424Z,78.30
2017-09-22T22:40:41.993Z,78.00
2017-09-22T22:43:09.592Z,78.30
2017-09-22T22:45:37.164Z,78.40
2017-09-22T22:48:04.979Z,78.70
2017-09-22T22:50:32.643Z,78.90
2017-09-22T22:53:02.735Z,78.90
2017-09-22T22:55:30.636Z,78.80
2017-09-22T22:57:59.935Z,78.70
2017-09-22T23:00:27.504Z,77.90
2017-09-22T23:02:55.864Z,78.60
2017-09-22T23:05:23.460Z,78.60
2017-09-22T23:07:51.034Z,78.40
2017-09-22T23:10:18.636Z,78.40
2017-09-22T23:12:46.311Z,78.80
2017-09-22T23:15:14.216Z,79.00
2017-09-22T23:17:41.780Z,79.20
2017-09-22T23:20:09.344Z,79.20
2017-09-22T23:22:36.936Z,79.20
2017-09-22T23:25:04.508Z,78.70
2017-09-22T23:27:32.101Z,79.00
2017-09-22T23:30:01.781Z,78.60
2017-09-22T23:32:29.371Z,78.50
2017-09-22T23:34:57.711Z,78.50
2017-09-22T23:37:25.324Z,78.50
2017-09-22T23:39:53.656Z,78.70
2017-09-22T23:42:21.269Z,78.70
2017-09-22T23:44:48.886Z,79.20
2017-09-22T23:47:16.520Z,79.30
2017-09-22T23:49:44.116Z,79.40
2017-09-22T23:52:11.752Z,78.90
2017-09-22T23:54:39.340Z,79.30
2017-09-22T23:57:08.425Z,79.70
2017-09-22T23:59:36.032Z,79.70
